createdAt,value
2024-03-01T00:00:56.960Z,7.47
2024-03-01T00:03:24.198Z,5.32
2024-03-01T00:05:51.387Z,5.40
2024-03-01T00:08:20.346Z,5.53
2024-03-01T00:10:47.567Z,5.55
2024-03-01T00:13:14.793Z,5.10
2024-03-01T00:15:42.133Z,5.38
2024-03-01T00:18:09.348Z,6.93
2024-03-01T00:20:36.646Z,6.60
2024-03-01T00:23:03.884Z,5.28
2024-03-01T00:25:31.224Z,5.60
2024-03-01T00:27:58.571Z,7.68
2024-03-01T00:30:25.930Z,4.97
2024-03-01T00:32:53.215Z,7.18
2024-03-01T00:35:20.404Z,6.68
2024-03-01T00:37:47.626Z,6.30
2024-03-01T00:40:15.054Z,6.22
2024-03-01T00:42:42.263Z,4.65
2024-03-01T00:45:09.617Z,5.78
2024-03-01T00:47:36.843Z,6.78
2024-03-01T00:50:04.517Z,7.72
2024-03-01T00:52:31.878Z,5.15
2024-03-01T00:54:59.139Z,4.75
2024-03-01T00:57:26.336Z,7.22
2024-03-01T00:59:53.558Z,7.03
2024-03-01T01:02:38.455Z,7.35
2024-03-01T01:05:08.032Z,5.35
2024-03-01T01:07:35.413Z,6.63
2024-03-01T01:10:02.827Z,4.82
2024-03-01T01:12:30.098Z,6.40
2024-03-01T01:14:57.302Z,5.07
2024-03-01T01:17:24.497Z,6.15
2024-03-01T01:19:51.797Z,6.70
2024-03-01T01:22:19.152Z,6.85
2024-03-01T01:24:46.815Z,6.28
2024-03-01T01:27:14.257Z,7.55
2024-03-01T01:29:41.514Z,5.40
2024-03-01T01:32:11.514Z,7.60
2024-03-01T01:34:38.753Z,6.65
2024-03-01T01:37:06.026Z,8.60
2024-03-01T01:39:33.309Z,5.78
2024-03-01T01:42:00.621Z,6.63
2024-03-01T01:44:27.804Z,7.97
2024-03-01T01:46:55.048Z,5.70
2024-03-01T01:49:23.904Z,7.93
2024-03-01T01:51:51.332Z,9.32
2024-03-01T01:54:18.799Z,7.97
2024-03-01T01:56:46.110Z,7.88
2024-03-01T01:59:14.440Z,7.78
2024-03-01T02:01:42.115Z,6.60
2024-03-01T02:04:09.717Z,6.40
2024-03-01T02:06:37.029Z,7.82
2024-03-01T02:09:13.661Z,6.55
2024-03-01T02:11:42.075Z,9.80
2024-03-01T02:14:10.863Z,7.18
2024-03-01T02:16:39.266Z,7.78
2024-03-01T02:19:08.514Z,7.65
2024-03-01T02:21:37.688Z,8.15
2024-03-01T02:24:05.889Z,9.13
2024-03-01T02:26:33.955Z,9.50
2024-03-01T02:29:02.510Z,7.50
2024-03-01T02:31:30.240Z,7.40
2024-03-01T02:33:57.463Z,6.43
2024-03-01T02:36:25.071Z,8.20
2024-03-01T02:38:52.348Z,7.55
2024-03-01T02:41:19.707Z,10.70
2024-03-01T02:43:46.914Z,8.63
2024-03-01T02:46:14.086Z,8.48
2024-03-01T02:48:41.302Z,8.05
2024-03-01T02:51:08.598Z,7.28
2024-03-01T02:53:35.827Z,9.25
2024-03-01T02:56:03.818Z,7.50
2024-03-01T02:58:31.059Z,7.85
2024-03-01T03:00:58.417Z,7.80
2024-03-01T03:03:25.692Z,9.35
2024-03-01T03:05:52.968Z,11.57
2024-03-01T03:08:20.297Z,10.00
2024-03-01T03:10:47.549Z,9.93
2024-03-01T03:13:15.153Z,9.10
2024-03-01T03:15:42.379Z,11.02
2024-03-01T03:18:09.637Z,8.23
2024-03-01T03:20:37.518Z,9.63
2024-03-01T03:23:04.884Z,10.55
2024-03-01T03:25:32.462Z,12.77
2024-03-01T03:27:59.832Z,11.32
2024-03-01T03:30:27.072Z,10.57
2024-03-01T03:32:54.329Z,10.77
2024-03-01T03:35:21.587Z,13.02
2024-03-01T03:37:48.826Z,10.25
2024-03-01T03:40:16.516Z,12.55
2024-03-01T03:42:44.398Z,9.43
2024-03-01T03:45:12.198Z,15.90
2024-03-01T03:47:39.626Z,12.77
2024-03-01T03:50:10.252Z,11.73
2024-03-01T03:52:37.872Z,14.43
2024-03-01T03:55:06.212Z,13.10
2024-03-01T03:57:34.286Z,13.18
2024-03-01T04:00:03.776Z,14.75
2024-03-01T04:02:30.974Z,12.65
2024-03-01T04:04:58.377Z,14.73
2024-03-01T04:07:25.626Z,12.88
2024-03-01T04:09:52.877Z,11.60
2024-03-01T04:12:20.183Z,12.25
2024-03-01T04:14:47.405Z,11.02
2024-03-01T04:17:14.778Z,11.35
2024-03-01T04:19:41.960Z,11.73
2024-03-01T04:22:10.373Z,11.90
2024-03-01T04:24:38.842Z,14.00
2024-03-01T04:27:06.252Z,12.80
2024-03-01T04:29:33.439Z,10.55
2024-03-01T04:32:00.855Z,13.07
2024-03-01T04:34:28.073Z,11.15
2024-03-01T04:36:59.992Z,15.25
2024-03-01T04:41:54.735Z,11.93
2024-03-01T04:44:21.969Z,11.93
2024-03-01T04:46:49.298Z,11.75
2024-03-01T04:49:16.531Z,11.80
2024-03-01T04:51:43.787Z,13.70
2024-03-01T04:54:11.058Z,11.55
2024-03-01T04:56:38.579Z,13.50
2024-03-01T04:59:06.479Z,14.13
2024-03-01T05:01:34.051Z,12.63
2024-03-01T05:04:09.818Z,10.18
2024-03-01T05:06:40.666Z,11.55
2024-03-01T05:09:08.525Z,11.77
2024-03-01T05:11:37.785Z,12.55
2024-03-01T05:14:05.186Z,11.98
2024-03-01T05:16:32.736Z,16.20
2024-03-01T05:19:00.019Z,14.68
2024-03-01T05:21:27.357Z,12.15
2024-03-01T05:23:54.565Z,14.02
2024-03-01T05:26:21.883Z,12.88
2024-03-01T05:28:49.071Z,10.82
2024-03-01T05:31:22.348Z,11.10
2024-03-01T05:33:52.521Z,14.13
2024-03-01T05:36:19.914Z,12.35
2024-03-01T05:38:47.117Z,12.40
2024-03-01T05:41:14.308Z,12.95
2024-03-01T05:43:41.713Z,11.90
2024-03-01T05:46:16.115Z,14.52
2024-03-01T05:48:44.154Z,12.57
2024-03-01T05:51:12.783Z,12.75
2024-03-01T05:53:43.409Z,11.43
2024-03-01T05:56:18.620Z,11.95
2024-03-01T05:58:49.591Z,11.85
2024-03-01T06:01:18.570Z,13.15
2024-03-01T06:03:46.456Z,10.57
2024-03-01T06:06:16.597Z,13.35
2024-03-01T06:08:44.137Z,12.38
2024-03-01T06:11:11.658Z,11.07
2024-03-01T06:13:39.983Z,12.55
2024-03-01T06:16:07.940Z,12.32
2024-03-01T06:18:35.353Z,10.10
2024-03-01T06:21:03.475Z,13.40
2024-03-01T06:23:31.793Z,15.02
2024-03-01T06:25:59.050Z,13.32
2024-03-01T06:28:26.406Z,12.18
2024-03-01T06:30:54.417Z,10.85
2024-03-01T06:33:21.680Z,9.55
2024-03-01T06:35:49.010Z,10.80
2024-03-01T06:38:16.225Z,10.65
2024-03-01T06:40:43.528Z,8.30
2024-03-01T06:43:10.849Z,10.27
2024-03-01T06:45:38.565Z,5.72
2024-03-01T06:48:06.160Z,5.90
2024-03-01T06:50:33.386Z,4.57
2024-03-01T06:53:00.646Z,2.92
2024-03-01T06:55:27.953Z,2.67
2024-03-01T06:57:55.282Z,1.90
2024-03-01T07:00:22.719Z,3.22
2024-03-01T07:02:50.010Z,1.58
2024-03-01T07:05:17.323Z,0.80
2024-03-01T07:07:44.661Z,1.10
2024-03-01T07:10:12.279Z,2.92
2024-03-01T07:12:39.506Z,2.00
2024-03-01T07:15:08.058Z,1.27
2024-03-01T07:17:35.493Z,1.20
2024-03-01T07:20:02.842Z,0.88
2024-03-01T07:22:30.046Z,2.67
2024-03-01T07:24:57.391Z,0.90
2024-03-01T07:27:24.780Z,3.55
2024-03-01T07:29:51.981Z,1.98
2024-03-01T07:32:19.174Z,2.22
2024-03-01T07:34:46.415Z,4.00
2024-03-01T07:37:14.006Z,2.42
2024-03-01T07:39:41.324Z,4.55
2024-03-01T07:42:09.347Z,2.55
2024-03-01T07:44:36.632Z,4.35
2024-03-01T07:47:04.487Z,5.18
2024-03-01T07:49:31.752Z,3.75
2024-03-01T07:51:59.145Z,2.97
2024-03-01T07:54:28.826Z,3.55
2024-03-01T07:56:56.055Z,3.30
2024-03-01T07:59:23.336Z,4.93
2024-03-01T08:01:50.699Z,4.95
2024-03-01T08:04:18.053Z,6.82
2024-03-01T08:06:45.254Z,5.40
2024-03-01T08:09:19.328Z,3.13
2024-03-01T08:11:49.810Z,5.95
2024-03-01T08:14:24.350Z,9.70
2024-03-01T08:16:53.442Z,4.15
2024-03-01T08:19:22.564Z,7.43
2024-03-01T08:21:54.559Z,6.90
2024-03-01T08:26:49.681Z,6.95
2024-03-01T08:29:19.671Z,7.07
2024-03-01T08:31:47.798Z,5.28
2024-03-01T08:34:31.420Z,5.53
2024-03-01T08:36:58.766Z,10.40
2024-03-01T08:39:26.808Z,7.30
2024-03-01T08:41:55.541Z,5.25
2024-03-01T08:44:22.805Z,7.43
2024-03-01T08:46:50.120Z,4.70
2024-03-01T08:49:36.013Z,7.63
2024-03-01T08:52:04.267Z,4.95
2024-03-01T08:54:31.535Z,4.20
2024-03-01T08:57:07.915Z,3.90
2024-03-01T08:59:45.014Z,2.92
2024-03-01T09:02:35.574Z,4.95
2024-03-01T09:05:02.802Z,3.10
2024-03-01T09:07:33.108Z,3.50
2024-03-01T09:10:00.570Z,2.90
2024-03-01T09:12:28.700Z,2.92
2024-03-01T09:15:00.371Z,3.22
2024-03-01T09:17:28.747Z,3.15
2024-03-01T09:19:56.126Z,3.75
2024-03-01T09:22:25.715Z,2.15
2024-03-01T09:24:53.611Z,4.35
2024-03-01T09:27:21.442Z,2.63
2024-03-01T09:29:48.716Z,3.30
2024-03-01T09:32:18.898Z,2.90
2024-03-01T09:34:47.069Z,2.78
2024-03-01T09:37:15.438Z,2.38
2024-03-01T09:39:43.143Z,4.35
2024-03-01T09:42:29.881Z,3.08
2024-03-01T09:44:57.240Z,3.00
2024-03-01T09:47:44.680Z,4.60
2024-03-01T09:50:11.840Z,6.40
2024-03-01T09:52:48.801Z,5.60
2024-03-01T09:55:28.126Z,4.45
2024-03-01T09:58:18.309Z,5.28
2024-03-01T10:00:55.001Z,5.40
2024-03-01T10:03:30.147Z,5.07
2024-03-01T10:06:09.613Z,4.25
2024-03-01T10:08:49.840Z,4.50
2024-03-01T10:11:23.315Z,6.60
2024-03-01T10:13:50.530Z,6.80
2024-03-01T10:16:26.757Z,4.00
2024-03-01T10:18:53.965Z,3.17
2024-03-01T10:21:24.827Z,2.45
2024-03-01T10:24:04.852Z,2.45
2024-03-01T10:26:34.063Z,2.13
2024-03-01T10:29:10.242Z,3.92
2024-03-01T10:31:57.480Z,5.03
2024-03-01T10:34:43.888Z,3.20
2024-03-01T10:37:26.600Z,2.13
2024-03-01T10:40:04.498Z,2.33
2024-03-01T10:42:31.806Z,1.75
2024-03-01T10:45:06.384Z,2.00
2024-03-01T10:47:34.412Z,1.67
2024-03-01T10:50:20.718Z,2.38
2024-03-01T10:53:06.542Z,2.67
2024-03-01T10:55:38.808Z,3.10
2024-03-01T10:58:06.843Z,2.83
2024-03-01T11:00:40.167Z,3.25
2024-03-01T11:03:23.590Z,3.53
2024-03-01T11:05:56.977Z,1.98
2024-03-01T11:08:27.718Z,2.15
2024-03-01T11:11:02.770Z,3.33
2024-03-01T11:13:34.256Z,2.38
2024-03-01T11:16:02.438Z,4.40
2024-03-01T11:18:37.093Z,7.78
2024-03-01T11:21:05.529Z,2.55
2024-03-01T11:23:36.723Z,4.22
2024-03-01T11:26:12.990Z,4.15
2024-03-01T11:28:41.575Z,6.95
2024-03-01T11:31:09.672Z,4.60
2024-03-01T11:33:37.841Z,4.07
2024-03-01T11:36:34.250Z,3.40
2024-03-01T11:39:07.903Z,4.65
2024-03-01T11:41:48.445Z,5.75
2024-03-01T11:44:28.725Z,7.43
2024-03-01T11:47:07.909Z,6.00
2024-03-01T11:49:41.192Z,3.17
2024-03-01T11:52:22.974Z,3.88
2024-03-01T11:54:56.202Z,3.20
2024-03-01T11:57:23.535Z,7.60
2024-03-01T12:00:04.511Z,5.88
2024-03-01T12:02:47.804Z,4.72
2024-03-01T12:05:21.276Z,4.47
2024-03-01T12:08:00.253Z,7.50
2024-03-01T12:10:43.182Z,4.82
2024-03-01T12:13:14.628Z,4.30
2024-03-01T12:15:45.812Z,7.18
2024-03-01T12:18:33.865Z,4.20
2024-03-01T12:21:18.871Z,3.85
2024-03-01T12:24:00.733Z,5.22
2024-03-01T12:26:33.672Z,5.47
2024-03-01T12:29:07.881Z,6.90
2024-03-01T12:31:37.839Z,7.00
2024-03-01T12:34:10.899Z,6.15
2024-03-01T12:36:58.796Z,4.97
2024-03-01T12:39:26.944Z,6.47
2024-03-01T12:42:06.405Z,5.15
2024-03-01T12:44:52.645Z,6.10
2024-03-01T12:47:19.819Z,4.93
2024-03-01T12:50:06.498Z,4.00
2024-03-01T12:52:42.129Z,5.22
2024-03-01T12:55:14.292Z,2.75
2024-03-01T12:57:50.891Z,6.28
2024-03-01T13:00:26.144Z,4.32
2024-03-01T13:02:59.661Z,3.65
2024-03-01T13:05:28.936Z,4.20
2024-03-01T13:07:58.062Z,4.00
2024-03-01T13:10:26.654Z,3.65
2024-03-01T13:12:58.954Z,5.93
2024-03-01T13:15:28.393Z,4.25
2024-03-01T13:17:56.354Z,5.80
2024-03-01T13:20:29.496Z,4.20
2024-03-01T13:23:09.024Z,3.97
2024-03-01T13:25:42.622Z,4.78
2024-03-01T13:28:18.224Z,3.95
2024-03-01T13:30:46.777Z,3.15
2024-03-01T13:33:32.790Z,3.22
2024-03-01T13:36:04.623Z,4.00
2024-03-01T13:38:39.881Z,4.40
2024-03-01T13:41:10.459Z,3.95
2024-03-01T13:43:42.606Z,3.88
2024-03-01T13:46:19.255Z,4.22
2024-03-01T13:48:51.002Z,2.78
2024-03-01T13:51:19.714Z,3.88
2024-03-01T13:53:50.220Z,4.72
2024-03-01T13:56:17.657Z,2.53
2024-03-01T13:58:45.090Z,4.32
2024-03-01T14:01:16.911Z,3.05
2024-03-01T14:03:53.869Z,2.70
2024-03-01T14:06:24.872Z,4.63
2024-03-01T14:08:52.595Z,4.05
2024-03-01T14:11:20.156Z,3.90
2024-03-01T14:13:53.737Z,4.00
2024-03-01T14:16:21.798Z,3.65
2024-03-01T14:18:49.047Z,4.45
2024-03-01T14:21:16.465Z,5.75
2024-03-01T14:23:44.895Z,3.70
2024-03-01T14:26:12.226Z,1.95
2024-03-01T14:28:39.777Z,5.20
2024-03-01T14:31:07.152Z,2.42
2024-03-01T14:33:35.373Z,3.08
2024-03-01T14:36:05.544Z,2.45
2024-03-01T14:38:33.212Z,2.35
2024-03-01T14:41:04.252Z,3.05
2024-03-01T14:43:46.370Z,2.67
2024-03-01T14:46:30.661Z,3.53
2024-03-01T14:49:04.561Z,1.85
2024-03-01T14:51:31.937Z,2.65
2024-03-01T14:54:00.897Z,2.60
2024-03-01T14:56:28.287Z,1.25
2024-03-01T14:58:56.137Z,1.35
2024-03-01T15:01:23.377Z,2.55
2024-03-01T15:03:50.614Z,4.15
2024-03-01T15:06:17.950Z,1.23
2024-03-01T15:08:45.265Z,2.97
2024-03-01T15:11:14.755Z,1.60
2024-03-01T15:13:45.446Z,2.00
2024-03-01T15:16:20.572Z,3.38
2024-03-01T15:18:47.906Z,2.95
2024-03-01T15:21:16.124Z,2.17
2024-03-01T15:23:44.597Z,2.03
2024-03-01T15:26:12.080Z,2.15
2024-03-01T15:28:40.655Z,1.60
2024-03-01T15:31:10.324Z,2.85
2024-03-01T15:33:37.926Z,1.30
2024-03-01T15:36:05.343Z,1.73
2024-03-01T15:38:36.817Z,1.83
2024-03-01T15:41:07.273Z,2.42
2024-03-01T15:43:36.045Z,4.53
2024-03-01T15:46:03.854Z,1.20
2024-03-01T15:48:31.449Z,1.50
2024-03-01T15:50:59.092Z,2.80
2024-03-01T15:53:32.293Z,2.25
2024-03-01T15:56:02.135Z,2.53
2024-03-01T15:58:30.684Z,1.42
2024-03-01T16:00:57.971Z,1.35
2024-03-01T16:03:25.215Z,3.72
2024-03-01T16:05:55.511Z,0.82
2024-03-01T16:08:23.613Z,1.33
2024-03-01T16:10:57.787Z,0.82
2024-03-01T16:13:32.210Z,3.63
2024-03-01T16:16:00.758Z,2.10
2024-03-01T16:18:41.387Z,1.48
2024-03-01T16:21:09.410Z,1.08
2024-03-01T16:23:40.161Z,1.55
2024-03-01T16:26:15.087Z,1.05
2024-03-01T16:28:44.467Z,0.68
2024-03-01T16:31:11.953Z,0.95
2024-03-01T16:33:39.265Z,0.98
2024-03-01T16:36:06.641Z,1.30
2024-03-01T16:38:37.654Z,0.98
2024-03-01T16:41:06.637Z,1.03
2024-03-01T16:43:44.035Z,1.45
2024-03-01T16:46:12.992Z,3.42
2024-03-01T16:48:50.547Z,0.93
2024-03-01T16:51:23.702Z,1.13
2024-03-01T16:53:50.943Z,1.10
2024-03-01T16:56:18.181Z,0.93
2024-03-01T16:58:45.822Z,0.93
2024-03-01T17:01:17.190Z,1.55
2024-03-01T17:03:44.495Z,2.97
2024-03-01T17:06:11.712Z,1.90
2024-03-01T17:08:44.076Z,0.75
2024-03-01T17:11:11.751Z,2.53
2024-03-01T17:13:39.132Z,0.90
2024-03-01T17:16:11.790Z,2.22
2024-03-01T17:18:39.448Z,1.65
2024-03-01T17:21:06.649Z,1.50
2024-03-01T17:23:33.988Z,1.70
2024-03-01T17:26:01.210Z,4.28
2024-03-01T17:28:28.471Z,1.17
2024-03-01T17:30:56.134Z,0.73
2024-03-01T17:33:23.397Z,1.45
2024-03-01T17:35:50.882Z,2.65
2024-03-01T17:38:18.143Z,1.95
2024-03-01T17:40:45.443Z,1.40
2024-03-01T17:43:12.735Z,0.93
2024-03-01T17:45:40.859Z,2.65
2024-03-01T17:48:08.589Z,3.08
2024-03-01T17:50:36.068Z,2.15
2024-03-01T17:53:03.596Z,2.03
2024-03-01T17:55:30.819Z,1.90
2024-03-01T17:57:58.572Z,3.45
2024-03-01T18:00:25.781Z,2.20
2024-03-01T18:02:52.991Z,2.05
2024-03-01T18:05:20.194Z,1.65
2024-03-01T18:07:47.407Z,2.58
2024-03-01T18:10:20.378Z,1.85
2024-03-01T18:12:50.864Z,2.38
2024-03-01T18:15:18.155Z,1.80
2024-03-01T18:17:45.414Z,2.15
2024-03-01T18:20:12.719Z,1.45
2024-03-01T18:22:41.463Z,2.30
2024-03-01T18:25:12.564Z,1.95
2024-03-01T18:27:40.794Z,3.45
2024-03-01T18:30:08.792Z,3.00
2024-03-01T18:32:36.348Z,1.63
2024-03-01T18:35:03.660Z,3.22
2024-03-01T18:37:31.027Z,3.53
2024-03-01T18:39:58.838Z,0.98
2024-03-01T18:42:26.148Z,3.58
2024-03-01T18:44:53.381Z,1.50
2024-03-01T18:47:20.869Z,1.38
2024-03-01T18:49:48.106Z,4.00
2024-03-01T18:52:15.392Z,1.85
2024-03-01T18:54:42.664Z,3.35
2024-03-01T18:57:12.851Z,2.40
2024-03-01T18:59:40.440Z,2.40
2024-03-01T19:02:08.283Z,1.55
2024-03-01T19:04:36.671Z,2.22
2024-03-01T19:07:04.302Z,2.53
2024-03-01T19:09:31.530Z,1.50
2024-03-01T19:11:58.755Z,2.83
2024-03-01T19:14:25.999Z,2.17
2024-03-01T19:16:53.412Z,4.32
2024-03-01T19:19:23.655Z,1.52
2024-03-01T19:21:50.951Z,3.22
2024-03-01T19:24:18.165Z,4.85
2024-03-01T19:26:45.493Z,4.88
2024-03-01T19:29:13.950Z,2.60
2024-03-01T19:31:41.202Z,4.25
2024-03-01T19:34:08.483Z,3.30
2024-03-01T19:36:38.481Z,4.20
2024-03-01T19:39:07.882Z,2.15
2024-03-01T19:41:35.120Z,2.65
2024-03-01T19:44:04.159Z,2.83
2024-03-01T19:46:32.507Z,3.80
2024-03-01T19:49:00.230Z,2.13
2024-03-01T19:51:27.599Z,5.13
2024-03-01T19:53:54.877Z,3.13
2024-03-01T19:56:22.085Z,2.53
2024-03-01T19:58:49.302Z,1.77
2024-03-01T20:01:16.681Z,1.63
2024-03-01T20:03:44.010Z,4.75
2024-03-01T20:06:11.200Z,6.03
2024-03-01T20:08:38.602Z,7.95
2024-03-01T20:11:06.198Z,3.53
2024-03-01T20:13:33.437Z,2.33
2024-03-01T20:16:00.695Z,2.42
2024-03-01T20:18:27.925Z,2.90
2024-03-01T20:20:55.120Z,3.33
2024-03-01T20:23:22.310Z,7.97
2024-03-01T20:25:49.553Z,12.18
2024-03-01T20:28:16.876Z,6.28
2024-03-01T20:30:44.038Z,3.45
2024-03-01T20:33:11.318Z,4.68
2024-03-01T20:35:38.574Z,6.10
2024-03-01T20:38:05.988Z,5.10
2024-03-01T20:40:33.250Z,6.53
2024-03-01T20:43:00.477Z,3.08
2024-03-01T20:45:27.665Z,2.63
2024-03-01T20:47:55.566Z,2.78
2024-03-01T20:50:22.863Z,1.52
2024-03-01T20:52:51.502Z,2.80
2024-03-01T20:55:18.805Z,3.40
2024-03-01T20:57:46.474Z,2.55
2024-03-01T21:00:16.868Z,4.03
2024-03-01T21:02:45.052Z,14.95
2024-03-01T21:05:12.903Z,7.63
2024-03-01T21:07:40.773Z,5.13
2024-03-01T21:10:08.568Z,3.60
2024-03-01T21:12:38.097Z,3.22
2024-03-01T21:15:09.802Z,5.20
2024-03-01T21:17:38.145Z,4.32
2024-03-01T21:20:08.673Z,3.92
2024-03-01T21:25:09.180Z,2.70
2024-03-01T21:27:39.747Z,2.83
2024-03-01T21:30:10.792Z,2.50
2024-03-01T21:32:39.438Z,1.95
2024-03-01T21:35:08.671Z,6.53
2024-03-01T21:37:36.025Z,2.78
2024-03-01T21:40:04.931Z,4.70
2024-03-01T21:42:32.315Z,4.95
2024-03-01T21:44:59.473Z,4.13
2024-03-01T21:47:26.704Z,2.65
2024-03-01T21:49:55.772Z,4.13
2024-03-01T21:52:23.105Z,3.38
2024-03-01T21:54:50.432Z,4.95
2024-03-01T21:57:17.767Z,5.03
2024-03-01T21:59:45.017Z,3.38
2024-03-01T22:02:12.200Z,4.25
2024-03-01T22:04:39.397Z,4.45
2024-03-01T22:07:06.575Z,7.28
2024-03-01T22:09:33.756Z,10.43
2024-03-01T22:12:00.939Z,13.15
2024-03-01T22:14:28.104Z,12.18
2024-03-01T22:16:55.303Z,7.10
2024-03-01T22:19:22.546Z,13.98
2024-03-01T22:21:49.879Z,4.20
2024-03-01T22:24:17.166Z,7.55
2024-03-01T22:26:44.461Z,6.25
2024-03-01T22:29:11.677Z,6.95
2024-03-01T22:31:38.925Z,5.78
2024-03-01T22:34:06.302Z,4.93
2024-03-01T22:36:33.586Z,6.38
2024-03-01T22:39:01.205Z,4.65
2024-03-01T22:41:28.404Z,7.35
2024-03-01T22:43:55.762Z,3.92
2024-03-01T22:46:23.166Z,7.63
2024-03-01T22:48:53.135Z,5.80
2024-03-01T22:51:20.572Z,7.93
2024-03-01T22:53:48.001Z,6.50
2024-03-01T22:56:19.406Z,7.22
2024-03-01T22:58:47.585Z,8.35
2024-03-01T23:01:18.639Z,9.73
2024-03-01T23:03:46.306Z,5.87
2024-03-01T23:06:16.072Z,5.75
2024-03-01T23:08:52.594Z,5.88
2024-03-01T23:11:25.686Z,5.18
2024-03-01T23:13:52.990Z,3.95
2024-03-01T23:16:20.485Z,2.67
2024-03-01T23:18:48.140Z,3.63
2024-03-01T23:21:15.541Z,2.85
2024-03-01T23:23:43.392Z,3.65
2024-03-01T23:26:10.850Z,5.50
2024-03-01T23:28:38.115Z,5.00
2024-03-01T23:31:05.437Z,3.45
2024-03-01T23:33:33.117Z,3.80
2024-03-01T23:36:00.413Z,3.60
2024-03-01T23:38:27.852Z,2.97
2024-03-01T23:40:55.397Z,2.15
2024-03-01T23:43:26.264Z,3.00
2024-03-01T23:45:53.795Z,2.85
2024-03-01T23:48:22.998Z,4.15
2024-03-01T23:50:50.640Z,3.70
2024-03-01T23:53:19.392Z,3.95
2024-03-01T23:55:47.297Z,6.25
2024-03-01T23:58:14.617Z,3.97
